Sunderland, Vermont
Current Conditions -  °F | °C
As of 3:54 AM on Wednesday 22 Oct 2014 (Local Time) from KDDH Reporting Station
Overcast Overcast  
Wind Chill: 11°   Ceiling: 2200
Heat Index: 11°   Visibility: 10mi
Dew Point:   Wind: 3mph
Humidity: 80%   Direction: 360°N
Pressure: 30"   Gusts: NA
Location:  43.0661°N, 73.1407°W
Report Text: KDDH 220754Z AUTO 36003KT 10SM OVC022 11/07 A3000 RMK AO2 SLP160 T01060072
Loading
Personal Weather Stations






























Interactive Weather Map
Tropical Storm Tracking
New forecast layout! Learn more

10-Day Weather Forecast

Advertisements
Track Severe Weather on mobile